Time;durP1;ratioP1;P1;durP2;ratioP2;P2;SDS_P1;SDS_P2;PMS_P1;PMS_P2;Temp;Humidity;BMP_temperature;BMP_pressure;BME280_temperature;BME280_humidity;BME280_pressure;Samples;Min_cycle;Max_cycle;Signal;HPM_P1;HPM_P2
2022/03/30 00:01:21;;;;;;;18.25;13.00;;;;;;;6.66;70.51;100000.29;1758580;81;20963;-71
2022/03/30 00:03:49;;;;;;;22.05;13.22;;;;;;;6.68;70.59;100008.87;1758389;81;21553;-71
2022/03/30 00:06:15;;;;;;;23.30;13.60;;;;;;;6.68;70.57;99998.91;1758328;81;20868;-74
2022/03/30 00:08:43;;;;;;;28.98;13.45;;;;;;;6.68;70.58;100002.36;1757970;81;21434;-73
2022/03/30 00:11:10;;;;;;;25.30;14.43;;;;;;;6.66;70.71;100000.29;1758063;81;20920;-73
2022/03/30 00:13:39;;;;;;;26.23;13.30;;;;;;;6.60;70.74;99997.56;1758030;81;20940;-73
2022/03/30 00:16:08;;;;;;;27.35;14.78;;;;;;;6.55;70.88;99990.91;1758225;81;21335;-74
2022/03/30 00:18:35;;;;;;;21.97;13.62;;;;;;;6.50;70.86;99987.72;1757867;81;20983;-74
2022/03/30 00:21:04;;;;;;;27.13;14.00;;;;;;;6.47;71.00;99983.52;1758027;81;21466;-74
2022/03/30 00:23:31;;;;;;;21.62;14.33;;;;;;;6.42;71.25;99976.39;1757895;80;20983;-74
2022/03/30 00:25:58;;;;;;;24.63;14.13;;;;;;;6.35;71.49;99969.83;1758047;81;20904;-73
2022/03/30 00:28:27;;;;;;;20.68;13.88;;;;;;;6.27;71.78;99966.34;1758204;80;21881;-72
2022/03/30 00:30:56;;;;;;;29.85;16.50;;;;;;;6.22;72.04;99963.12;1758003;81;20963;-74
2022/03/30 00:33:24;;;;;;;33.53;15.85;;;;;;;6.19;72.39;99961.98;1758233;80;20928;-74
2022/03/30 00:35:51;;;;;;;25.70;13.20;;;;;;;6.18;72.84;99962.45;1758468;81;21026;-74
2022/03/30 00:38:17;;;;;;;27.02;14.03;;;;;;;6.19;72.96;99960.22;1758142;81;20877;-74
2022/03/30 00:40:46;;;;;;;34.03;16.27;;;;;;;6.19;73.15;99961.52;1757990;81;20829;-73
2022/03/30 00:43:12;;;;;;;31.10;16.23;;;;;;;6.21;73.23;99962.75;1757864;81;21506;-74
2022/03/30 00:45:41;;;;;;;24.90;14.53;;;;;;;6.26;73.22;99965.11;1757893;81;21015;-73
2022/03/30 00:48:07;;;;;;;24.67;14.58;;;;;;;6.29;73.30;99962.34;1757973;81;20959;-74
2022/03/30 00:50:36;;;;;;;29.92;14.60;;;;;;;6.31;73.30;99951.38;1757953;80;21421;-74
2022/03/30 00:53:03;;;;;;;22.80;14.53;;;;;;;6.34;73.20;99955.14;1757999;81;21223;-74
2022/03/30 00:55:31;;;;;;;24.32;15.28;;;;;;;6.37;73.18;99957.10;1757801;81;20920;-74
2022/03/30 00:57:58;;;;;;;25.97;14.38;;;;;;;6.35;73.17;99951.60;1757907;81;20924;-75
2022/03/30 01:00:25;;;;;;;21.80;15.35;;;;;;;6.34;73.36;99940.82;1757999;81;20991;-73
2022/03/30 01:02:51;;;;;;;27.17;16.85;;;;;;;6.27;73.68;99935.09;1758013;80;21481;-74
2022/03/30 01:05:18;;;;;;;26.15;17.27;;;;;;;6.19;73.90;99934.66;1758062;80;21099;-74
2022/03/30 01:07:47;;;;;;;35.78;19.23;;;;;;;6.14;74.34;99930.16;1757934;81;20857;-74
2022/03/30 01:10:14;;;;;;;35.10;18.85;;;;;;;6.07;74.88;99918.37;1758181;81;21393;-73
2022/03/30 01:12:42;;;;;;;32.98;18.70;;;;;;;5.99;75.57;99919.62;1758104;81;21457;-74
2022/03/30 01:15:12;;;;;;;37.88;19.92;;;;;;;5.91;76.41;99923.03;1757924;81;20916;-74
2022/03/30 01:17:39;;;;;;;32.25;20.52;;;;;;;5.87;76.73;99935.85;1754619;81;21898;-74
2022/03/30 01:20:10;;;;;;;40.05;21.68;;;;;;;5.89;77.12;99941.82;1744566;82;20885;-74
2022/03/30 01:22:39;;;;;;;38.40;22.13;;;;;;;5.95;77.47;99954.52;1744615;81;20909;-73
2022/03/30 01:25:07;;;;;;;39.55;22.17;;;;;;;6.01;77.63;99959.89;1744506;81;20850;-74
2022/03/30 01:27:34;;;;;;;37.42;20.92;;;;;;;6.10;77.65;99948.99;1744732;82;20932;-73
2022/03/30 01:33:02;;;;;;;34.30;20.68;;;;;;;6.19;77.58;99958.08;1744710;82;20944;-73
2022/03/30 01:35:29;;;;;;;35.58;21.77;;;;;;;6.22;77.65;99960.52;1744562;82;20921;-74
2022/03/30 01:37:56;;;;;;;32.10;19.92;;;;;;;6.26;77.70;99938.61;1744527;81;21427;-75
2022/03/30 01:40:22;;;;;;;31.45;19.35;;;;;;;6.26;77.69;99932.56;1744616;82;20909;-74
2022/03/30 01:42:49;;;;;;;33.28;20.02;;;;;;;6.28;77.81;99945.05;1744675;81;21413;-74
2022/03/30 01:45:16;;;;;;;31.55;19.10;;;;;;;6.29;77.95;99928.48;1744859;80;20869;-74
2022/03/30 01:47:57;;;;;;;32.55;19.73;;;;;;;6.28;78.10;99930.73;1744722;80;20925;-74
2022/03/30 01:50:27;;;;;;;34.13;19.62;;;;;;;6.26;78.33;99920.85;1744689;82;20912;-74
2022/03/30 01:52:53;;;;;;;31.33;19.92;;;;;;;6.23;78.55;99920.56;1745070;82;20924;-74
2022/03/30 01:55:20;;;;;;;33.85;21.87;;;;;;;6.24;78.75;99926.13;1745051;81;21087;-74
2022/03/30 01:57:47;;;;;;;33.02;21.68;;;;;;;6.26;79.02;99920.85;1744461;81;21007;-73
2022/03/30 02:00:17;;;;;;;32.70;20.68;;;;;;;6.25;79.23;99917.85;1744783;82;20929;-74
2022/03/30 02:02:44;;;;;;;36.80;22.07;;;;;;;6.25;79.40;99926.53;1745016;82;20933;-74
2022/03/30 02:05:12;;;;;;;33.92;22.95;;;;;;;6.28;79.61;99941.14;1744560;82;20933;-73
2022/03/30 02:07:39;;;;;;;37.67;22.27;;;;;;;6.30;79.72;99951.84;1744608;82;21893;-74
2022/03/30 02:10:09;;;;;;;32.33;22.77;;;;;;;6.35;79.86;99940.72;1744513;82;20853;-75
2022/03/30 02:12:37;;;;;;;37.78;22.37;;;;;;;6.41;79.83;99949.98;1744527;81;20928;-74
2022/03/30 02:15:06;;;;;;;33.35;22.48;;;;;;;6.46;79.78;99942.75;1744628;81;21438;-74
2022/03/30 02:17:33;;;;;;;36.58;24.27;;;;;;;6.49;79.71;99943.91;1745645;81;20980;-74
2022/03/30 02:20:00;;;;;;;42.30;23.47;;;;;;;6.48;79.56;99950.49;1757934;81;21198;-74
2022/03/30 02:22:27;;;;;;;48.42;23.83;;;;;;;6.50;79.62;99967.72;1757856;81;20920;-74
2022/03/30 02:24:54;;;;;;;39.65;24.35;;;;;;;6.53;79.59;99962.80;1758043;81;20916;-73
2022/03/30 02:27:22;;;;;;;39.20;25.20;;;;;;;6.54;79.64;99950.17;1757956;81;21366;-74
2022/03/30 02:29:51;;;;;;;40.10;25.12;;;;;;;6.53;79.71;99960.19;1757934;81;20975;-74
2022/03/30 02:32:18;;;;;;;41.55;24.27;;;;;;;6.55;79.77;99971.37;1758268;80;21277;-75
2022/03/30 02:34:45;;;;;;;41.63;23.05;;;;;;;6.55;79.79;99963.56;1757767;81;20921;-74
2022/03/30 02:37:12;;;;;;;46.05;25.65;;;;;;;6.55;79.86;99961.78;1757861;81;21466;-73
2022/03/30 02:39:39;;;;;;;34.38;22.50;;;;;;;6.58;79.85;99962.94;1757814;81;20900;-74
2022/03/30 02:42:08;;;;;;;39.58;25.43;;;;;;;6.61;79.82;99959.33;1758041;81;21410;-73
2022/03/30 02:44:35;;;;;;;37.20;24.45;;;;;;;6.64;79.79;99957.84;1758324;81;21147;-73
2022/03/30 02:47:03;;;;;;;46.45;27.93;;;;;;;6.66;79.80;99944.74;1758207;81;20952;-73
2022/03/30 02:49:30;;;;;;;38.53;24.52;;;;;;;6.63;79.80;99941.38;1757905;81;20837;-74
2022/03/30 02:51:57;;;;;;;38.20;24.47;;;;;;;6.59;79.91;99927.30;1757905;81;20916;-74
2022/03/30 02:54:24;;;;;;;44.40;26.40;;;;;;;6.54;80.17;99928.03;1757961;81;20980;-74
2022/03/30 02:56:51;;;;;;;38.98;25.08;;;;;;;6.48;80.27;99922.67;1757765;81;21832;-74
2022/03/30 02:59:17;;;;;;;51.92;28.07;;;;;;;6.45;80.56;99925.45;1757766;80;20888;-74
2022/03/30 03:01:44;;;;;;;39.50;24.27;;;;;;;6.45;80.65;99933.27;1758081;81;20948;-74
2022/03/30 03:04:11;;;;;;;42.62;26.93;;;;;;;6.49;80.67;99942.61;1758281;81;20952;-74
2022/03/30 03:06:38;;;;;;;44.35;24.25;;;;;;;6.55;80.61;99934.91;1757868;81;20888;-74
2022/03/30 03:09:05;;;;;;;38.17;23.77;;;;;;;6.58;80.48;99927.77;1757847;81;21135;-72
2022/03/30 03:11:32;;;;;;;45.85;27.52;;;;;;;6.57;80.45;99925.24;1757854;81;20955;-74
2022/03/30 03:14:05;;;;;;;40.05;25.88;;;;;;;6.55;80.38;99936.20;1758019;81;20881;-75
2022/03/30 03:16:29;;;;;;;42.27;26.30;;;;;;;6.52;80.43;99935.91;1758457;81;20940;-74
2022/03/30 03:18:56;;;;;;;49.53;28.75;;;;;;;6.51;80.58;99933.38;1752381;81;20964;-72
2022/03/30 03:21:23;;;;;;;52.95;32.23;;;;;;;6.48;80.59;99925.75;1744889;82;21197;-74
2022/03/30 03:23:49;;;;;;;48.05;28.45;;;;;;;6.48;80.80;99921.84;1744446;82;20866;-74
2022/03/30 03:26:19;;;;;;;53.85;30.45;;;;;;;6.47;80.82;99918.41;1744750;82;21462;-73
2022/03/30 03:28:45;;;;;;;49.55;30.02;;;;;;;6.50;80.87;99916.92;1738726;81;20853;-75
2022/03/30 03:32:22;;;;;;;50.38;31.57;;;;;;;6.59;80.86;99915.11;1798612;79;23201;-74
2022/03/30 03:34:49;;;;;;;49.55;29.87;;;;;;;6.63;80.89;99928.36;1758597;81;20912;-74
2022/03/30 03:37:16;;;;;;;43.73;28.27;;;;;;;6.72;80.69;99921.80;1758391;81;21237;-74
2022/03/30 03:39:43;;;;;;;45.08;28.10;;;;;;;6.80;80.39;99917.45;1758333;81;20999;-74
2022/03/30 03:42:10;;;;;;;44.08;28.87;;;;;;;6.89;80.20;99912.19;1758297;81;20880;-74
2022/03/30 03:44:37;;;;;;;42.38;28.25;;;;;;;6.92;79.69;99915.48;1758188;81;20987;-74
2022/03/30 03:47:07;;;;;;;44.65;31.12;;;;;;;6.91;79.40;99916.86;1758387;81;20927;-74
2022/03/30 03:49:33;;;;;;;50.52;30.95;;;;;;;6.92;79.51;99919.86;1758300;80;21163;-74
2022/03/30 03:52:00;;;;;;;51.05;29.75;;;;;;;6.97;79.37;99912.61;1758236;81;21429;-75
2022/03/30 03:54:27;;;;;;;46.98;28.85;;;;;;;7.01;79.27;99920.17;1758825;81;20912;-75
2022/03/30 03:56:54;;;;;;;46.90;29.85;;;;;;;7.08;79.12;99917.22;1758396;81;21576;-75
2022/03/30 03:59:21;;;;;;;46.13;29.07;;;;;;;7.12;78.87;99921.34;1758322;81;20888;-73
2022/03/30 04:01:47;;;;;;;48.60;30.25;;;;;;;7.15;78.87;99919.84;1758474;81;21158;-74
2022/03/30 04:04:17;;;;;;;46.70;27.58;;;;;;;7.20;78.83;99925.63;1758265;81;20884;-74
2022/03/30 04:06:43;;;;;;;46.77;28.47;;;;;;;7.29;78.82;99929.01;1758309;81;20951;-74
2022/03/30 04:09:11;;;;;;;48.70;29.25;;;;;;;7.38;78.26;99931.55;1758416;81;20924;-73
2022/03/30 04:11:39;;;;;;;57.13;31.10;;;;;;;7.37;77.85;99920.76;1758298;81;20908;-74
2022/03/30 04:14:07;;;;;;;42.78;30.12;;;;;;;7.34;77.79;99915.73;1758342;81;21882;-74
2022/03/30 04:16:34;;;;;;;49.53;28.92;;;;;;;7.33;77.76;99924.00;1758556;80;21490;-76
2022/03/30 04:19:01;;;;;;;48.20;28.80;;;;;;;7.38;77.80;99926.34;1758370;80;20845;-75
2022/03/30 04:21:29;;;;;;;44.70;30.00;;;;;;;7.49;77.67;99922.64;1758479;81;20884;-74
2022/03/30 04:23:56;;;;;;;38.53;27.60;;;;;;;7.56;77.35;99926.59;1758352;81;20991;-73
2022/03/30 04:26:23;;;;;;;48.55;30.95;;;;;;;7.61;76.98;99928.92;1758198;81;21254;-73
2022/03/30 04:28:51;;;;;;;45.85;29.12;;;;;;;7.61;76.89;99938.06;1758252;81;21406;-74
2022/03/30 04:31:17;;;;;;;44.15;29.37;;;;;;;7.63;76.84;99937.03;1758254;81;20928;-73
2022/03/30 04:33:45;;;;;;;52.58;31.77;;;;;;;7.64;76.58;99940.00;1758513;81;21450;-75
2022/03/30 04:36:14;;;;;;;40.83;28.70;;;;;;;7.65;76.50;99946.92;1758525;81;20888;-73
2022/03/30 04:38:41;;;;;;;47.23;29.92;;;;;;;7.68;76.29;99952.42;1758588;81;21910;-73
2022/03/30 04:41:09;;;;;;;73.42;42.25;;;;;;;7.65;76.07;99953.45;1758507;81;20908;-74
2022/03/30 04:43:36;;;;;;;59.13;38.10;;;;;;;7.55;76.20;99947.08;1758075;81;21438;-73
2022/03/30 04:46:03;;;;;;;49.63;33.13;;;;;;;7.46;76.43;99961.95;1757798;81;20944;-74
2022/03/30 04:48:30;;;;;;;48.05;29.72;;;;;;;7.44;76.67;99954.21;1758150;81;20904;-74
2022/03/30 04:50:57;;;;;;;47.20;31.17;;;;;;;7.46;76.71;99959.34;1759387;80;21238;-71
2022/03/30 04:53:23;;;;;;;49.33;33.25;;;;;;;7.45;76.82;99962.43;1759579;81;20927;-71
2022/03/30 04:55:50;;;;;;;51.28;30.00;;;;;;;7.48;76.81;99962.24;1758311;81;20908;-74
2022/03/30 04:58:17;;;;;;;53.35;34.25;;;;;;;7.51;76.71;99971.66;1758019;81;20916;-74
2022/03/30 05:00:45;;;;;;;54.40;32.60;;;;;;;7.52;76.71;99979.05;1758021;80;20971;-74
2022/03/30 05:03:12;;;;;;;54.60;35.28;;;;;;;7.54;76.67;99991.53;1758107;80;21265;-73
2022/03/30 05:05:38;;;;;;;48.52;33.55;;;;;;;7.59;76.74;100003.84;1758039;81;21338;-74
2022/03/30 05:08:07;;;;;;;49.35;34.08;;;;;;;7.66;76.69;100006.00;1758358;81;21022;-73
2022/03/30 05:10:36;;;;;;;53.25;34.98;;;;;;;7.67;76.43;100009.00;1758009;81;20987;-74
2022/03/30 05:13:05;;;;;;;63.23;36.50;;;;;;;7.70;76.41;100010.59;1758108;81;20888;-74
2022/03/30 05:15:34;;;;;;;75.00;46.37;;;;;;;7.70;76.19;100011.06;1707902;83;20896;-74
2022/03/30 05:18:01;;;;;;;64.58;39.18;;;;;;;7.67;76.09;100009.47;1707946;84;20974;-73
2022/03/30 05:20:31;;;;;;;67.37;40.70;;;;;;;7.66;76.19;100006.47;1707913;84;20940;-75
2022/03/30 05:22:58;;;;;;;62.95;37.78;;;;;;;7.64;76.18;100004.41;1707948;84;21490;-74
2022/03/30 05:25:26;;;;;;;62.43;39.40;;;;;;;7.63;76.33;99997.05;1707923;84;21000;-74
2022/03/30 05:27:53;;;;;;;61.92;37.63;;;;;;;7.63;76.44;99987.92;1707781;84;22135;-75
2022/03/30 05:30:20;;;;;;;62.55;40.05;;;;;;;7.64;76.48;99981.76;1707793;84;20913;-73
2022/03/30 05:32:48;;;;;;;64.25;40.73;;;;;;;7.68;76.52;99978.52;1679350;84;21462;-75
2022/03/30 05:35:15;;;;;;;66.62;36.65;;;;;;;7.75;76.44;99975.09;1702622;83;20987;-73
2022/03/30 05:37:48;;;;;;;64.82;39.25;;;;;;;7.76;76.13;99980.22;1702596;84;20877;-74
2022/03/30 05:40:17;;;;;;;58.30;38.10;;;;;;;7.77;75.95;99977.14;1730398;80;21103;-76
2022/03/30 05:42:45;;;;;;;68.95;40.08;;;;;;;7.74;75.90;99970.34;1754479;81;21480;-74
2022/03/30 05:45:12;;;;;;;68.78;39.67;;;;;;;7.74;75.87;99974.25;1736162;81;20892;-74
2022/03/30 05:47:39;;;;;;;63.95;37.93;;;;;;;7.73;75.83;99977.77;1754775;81;20983;-74
2022/03/30 05:50:07;;;;;;;64.80;38.90;;;;;;;7.71;76.01;99971.80;1754838;81;20892;-74
2022/03/30 05:52:36;;;;;;;68.87;43.08;;;;;;;7.77;76.13;99981.06;1755046;80;21136;-74
2022/03/30 05:55:04;;;;;;;77.37;43.87;;;;;;;7.82;76.01;99976.40;1754588;81;20916;-75
2022/03/30 05:57:30;;;;;;;70.15;42.48;;;;;;;7.88;75.96;99974.27;1754733;81;20876;-74
2022/03/30 05:59:59;;;;;;;70.35;41.73;;;;;;;8.00;75.80;99967.94;1754560;80;20952;-74
2022/03/30 06:02:26;;;;;;;68.35;43.40;;;;;;;8.09;75.50;99972.16;1754688;81;20948;-73
2022/03/30 06:04:53;;;;;;;77.50;42.65;;;;;;;8.15;75.32;99973.55;1754748;81;21279;-75
2022/03/30 06:07:20;;;;;;;73.95;45.28;;;;;;;8.19;74.85;99972.91;1754635;80;21382;-74
2022/03/30 06:09:47;;;;;;;76.25;44.25;;;;;;;8.18;74.59;99969.91;1754691;81;20916;-75
2022/03/30 06:12:15;;;;;;;68.20;40.15;;;;;;;8.16;74.50;99963.94;1754632;81;21241;-74
2022/03/30 06:14:43;;;;;;;65.28;39.98;;;;;;;8.12;74.22;99959.85;1754742;81;21463;-75
2022/03/30 06:17:10;;;;;;;74.67;45.10;;;;;;;8.04;74.41;99949.86;1754857;81;21223;-77
2022/03/30 06:19:39;;;;;;;61.98;38.20;;;;;;;8.04;74.66;99956.38;1754653;81;20959;-75
2022/03/30 06:22:08;;;;;;;61.45;43.05;;;;;;;8.09;74.53;99965.63;1754740;81;20901;-74
2022/03/30 06:24:36;;;;;;;57.88;38.78;;;;;;;8.16;74.49;99958.27;1754880;81;20999;-73
2022/03/30 06:27:04;;;;;;;67.72;42.00;;;;;;;8.26;74.33;99963.76;1754676;81;21375;-74
2022/03/30 06:29:34;;;;;;;71.72;43.75;;;;;;;8.36;74.28;99947.91;1755078;81;21235;-74
2022/03/30 06:32:02;;;;;;;73.87;43.60;;;;;;;8.52;74.07;99963.50;1749621;81;20842;-74
2022/03/30 06:34:30;;;;;;;62.10;40.90;;;;;;;8.68;74.02;99962.91;1744521;80;20960;-74
2022/03/30 06:36:57;;;;;;;61.73;39.08;;;;;;;8.93;73.81;99971.81;1744429;82;20972;-74
2022/03/30 06:39:24;;;;;;;61.70;41.65;;;;;;;9.16;73.19;99976.90;1744423;81;21029;-75
2022/03/30 06:41:52;;;;;;;59.67;42.58;;;;;;;9.39;72.28;99983.72;1744570;81;21775;-74
2022/03/30 06:44:19;;;;;;;64.85;40.55;;;;;;;9.61;71.55;99979.23;1744545;82;20964;-75
2022/03/30 06:46:48;;;;;;;57.40;42.48;;;;;;;9.78;70.56;99980.22;1744630;82;20905;-75
2022/03/30 06:49:15;;;;;;;58.05;41.83;;;;;;;9.96;69.99;99984.24;1744521;82;21023;-75
2022/03/30 06:51:43;;;;;;;68.72;41.53;;;;;;;10.15;69.29;99990.84;1744625;82;20916;-76
2022/03/30 06:54:11;;;;;;;59.15;41.92;;;;;;;10.29;68.83;99992.09;1744627;82;21642;-75
2022/03/30 06:56:38;;;;;;;58.83;41.00;;;;;;;10.43;68.27;99991.61;1744561;82;20920;-75
2022/03/30 06:59:05;;;;;;;72.72;51.48;;;;;;;10.53;67.74;99991.31;1744826;82;21023;-75
2022/03/30 07:01:32;;;;;;;88.25;65.22;;;;;;;10.60;67.38;99993.87;1744688;82;21490;-75
2022/03/30 07:03:59;;;;;;;65.70;39.90;;;;;;;10.67;67.07;99987.72;1744703;81;20925;-74
2022/03/30 07:06:26;;;;;;;62.23;42.45;;;;;;;10.75;66.96;99986.72;1744855;82;21105;-76
2022/03/30 07:11:41;;;;;;;52.62;38.65;;;;;;;10.98;66.46;99987.23;1744415;81;21045;-75
2022/03/30 07:14:09;;;;;;;55.60;36.83;;;;;;;11.17;66.01;99985.89;1744849;82;20913;-75
2022/03/30 07:16:38;;;;;;;55.28;38.75;;;;;;;11.33;65.37;99985.61;1744660;80;20957;-75
2022/03/30 07:19:06;;;;;;;52.93;35.88;;;;;;;11.47;64.90;99976.70;1744916;82;21858;-73
2022/03/30 07:21:34;;;;;;;44.27;34.38;;;;;;;11.58;64.52;99982.86;1744799;82;20920;-74
2022/03/30 07:24:01;;;;;;;44.58;33.42;;;;;;;11.74;64.09;99979.09;1744564;82;20858;-75
2022/03/30 07:26:29;;;;;;;43.35;30.65;;;;;;;11.91;63.71;99973.41;1744773;82;20983;-75
2022/03/30 07:28:56;;;;;;;47.62;32.25;;;;;;;12.10;62.85;99969.39;1744679;81;20952;-75
2022/03/30 07:31:25;;;;;;;43.28;32.23;;;;;;;12.28;62.44;99975.84;1744333;81;21469;-74
2022/03/30 07:33:53;;;;;;;49.58;33.85;;;;;;;12.44;61.71;99972.86;1751682;81;20936;-75
2022/03/30 07:36:21;;;;;;;56.50;36.63;;;;;;;12.54;61.36;99968.56;1757815;81;20877;-75
2022/03/30 07:38:49;;;;;;;56.92;40.98;;;;;;;12.89;61.27;99975.42;1757830;81;20987;-75
2022/03/30 07:41:17;;;;;;;47.80;33.83;;;;;;;12.89;61.27;99975.42;1757920;80;21453;-75
2022/03/30 07:43:45;;;;;;;49.80;34.70;;;;;;;13.08;60.26;99971.34;1757865;81;21293;-76
2022/03/30 07:46:13;;;;;;;45.80;30.72;;;;;;;13.43;59.36;99972.45;1757869;81;21554;-76
2022/03/30 07:48:41;;;;;;;46.65;30.55;;;;;;;13.43;59.36;99972.45;1758213;81;20873;-76
2022/03/30 07:51:08;;;;;;;40.55;31.35;;;;;;;13.64;58.95;99973.77;1757784;81;20991;-76
2022/03/30 07:53:36;;;;;;;44.75;30.43;;;;;;;13.86;58.60;99974.95;1757815;81;20849;-75
2022/03/30 07:56:03;;;;;;;37.90;26.45;;;;;;;14.12;57.33;99965.34;1758442;81;21183;-77
2022/03/30 07:58:31;;;;;;;35.48;27.07;;;;;;;14.48;56.17;99964.45;1758713;80;21315;-75
2022/03/30 08:00:58;;;;;;;38.67;26.93;;;;;;;14.48;56.17;99964.45;1758998;81;20924;-75
2022/03/30 08:03:26;;;;;;;34.40;26.90;;;;;;;14.66;55.95;99962.03;1760224;81;21527;-76
2022/03/30 08:05:55;;;;;;;35.17;26.80;;;;;;;14.86;54.99;99964.23;1759053;81;21959;-74
2022/03/30 08:08:22;;;;;;;34.33;25.80;;;;;;;14.98;54.39;99967.09;1758006;81;21105;-78
2022/03/30 08:10:51;;;;;;;38.80;25.75;;;;;;;15.10;53.57;99970.47;1757688;81;20923;-76
2022/03/30 08:13:19;;;;;;;36.60;25.45;;;;;;;15.21;53.70;99961.09;1757790;81;20932;-75
2022/03/30 08:15:48;;;;;;;35.90;25.65;;;;;;;15.40;53.21;99957.60;1757843;81;20983;-77
2022/03/30 08:18:17;;;;;;;33.50;26.42;;;;;;;15.57;52.66;99958.72;1758014;81;21532;-77
2022/03/30 08:23:30;;;;;;;54.95;39.98;;;;;;;15.73;51.63;99952.39;1757976;81;20927;-75
2022/03/30 08:25:57;;;;;;;59.63;46.55;;;;;;;15.77;51.33;99946.84;1741179;81;20916;-75
2022/03/30 08:28:24;;;;;;;31.77;24.00;;;;;;;15.79;51.07;99951.50;1758019;81;20948;-74
2022/03/30 08:30:55;;;;;;;29.92;21.52;;;;;;;15.80;50.88;99950.02;1757928;81;21378;-75
2022/03/30 08:33:26;;;;;;;33.15;21.75;;;;;;;15.87;50.81;99944.98;1757700;80;21230;-75
2022/03/30 08:35:52;;;;;;;36.42;19.92;;;;;;;16.03;50.59;99952.31;1757464;81;21030;-75
2022/03/30 08:38:19;;;;;;;32.58;20.08;;;;;;;16.19;50.14;99944.62;1757996;80;20872;-75
2022/03/30 08:40:47;;;;;;;31.20;20.43;;;;;;;16.37;49.72;99953.95;1758056;80;20979;-75
2022/03/30 08:43:15;;;;;;;31.82;21.30;;;;;;;16.55;49.24;99944.25;1758114;81;21392;-74
2022/03/30 08:45:44;;;;;;;35.88;19.45;;;;;;;16.80;48.68;99948.53;1758011;80;21984;-75
2022/03/30 08:48:11;;;;;;;31.42;21.68;;;;;;;17.03;48.02;99950.75;1758059;81;20908;-75
2022/03/30 08:50:39;;;;;;;28.85;21.80;;;;;;;17.27;47.93;99960.75;1757987;80;20876;-74
2022/03/30 08:53:06;;;;;;;30.77;22.25;;;;;;;17.52;47.07;99958.67;1758313;80;20979;-75
2022/03/30 08:55:35;;;;;;;29.85;20.77;;;;;;;17.80;46.21;99947.92;1757981;81;21832;-76
2022/03/30 08:58:03;;;;;;;28.42;18.25;;;;;;;18.09;45.53;99944.98;1758006;81;21117;-76
2022/03/30 09:00:34;;;;;;;27.30;19.65;;;;;;;18.38;44.87;99935.34;1757802;81;20865;-75
2022/03/30 09:03:01;;;;;;;26.42;19.37;;;;;;;18.66;44.03;99942.27;1757960;80;20881;-75
2022/03/30 09:05:35;;;;;;;33.85;20.57;;;;;;;18.95;43.55;99944.03;1757979;81;20948;-74
2022/03/30 09:08:14;;;;;;;32.78;19.50;;;;;;;19.33;42.72;99939.59;1758048;81;20931;-74
2022/03/30 09:10:45;;;;;;;27.17;18.70;;;;;;;19.75;42.24;99939.95;1758059;81;21395;-74
2022/03/30 09:13:17;;;;;;;22.77;16.93;;;;;;;20.26;41.41;99933.83;1757818;81;20876;-74
2022/03/30 09:15:44;;;;;;;24.35;18.10;;;;;;;20.81;40.42;99936.09;1758045;81;20856;-75
2022/03/30 09:18:12;;;;;;;24.32;18.55;;;;;;;21.30;38.96;99927.28;1757881;81;20936;-76
2022/03/30 09:20:42;;;;;;;23.77;16.77;;;;;;;21.78;38.13;99924.88;1757869;81;21324;-75
2022/03/30 09:23:10;;;;;;;25.43;18.00;;;;;;;22.13;37.21;99916.67;1758258;80;21862;-75
2022/03/30 09:25:38;;;;;;;25.17;18.27;;;;;;;22.45;36.55;99912.78;1757817;80;20932;-75
2022/03/30 09:28:06;;;;;;;25.88;18.37;;;;;;;22.74;35.92;99911.06;1757936;80;21043;-75
2022/03/30 09:30:34;;;;;;;23.42;17.70;;;;;;;22.96;35.50;99905.23;1740983;81;20861;-75
2022/03/30 09:33:02;;;;;;;32.35;23.60;;;;;;;23.18;34.78;99906.91;1757957;81;21421;-74
2022/03/30 09:35:38;;;;;;;29.42;18.17;;;;;;;23.33;34.02;99909.53;1757881;81;21548;-74
2022/03/30 09:38:08;;;;;;;22.42;17.27;;;;;;;23.37;34.07;99900.61;1757860;80;21013;-74
2022/03/30 09:40:49;;;;;;;20.15;15.00;;;;;;;23.50;33.93;99893.18;1757921;81;21102;-75
2022/03/30 09:43:26;;;;;;;22.15;15.08;;;;;;;23.72;33.43;99890.80;1757948;81;20896;-75
2022/03/30 09:46:11;;;;;;;24.12;15.80;;;;;;;23.96;32.94;99878.79;1758356;80;20936;-75
2022/03/30 09:48:56;;;;;;;19.12;15.08;;;;;;;24.27;33.03;99880.18;1758019;81;21274;-74
2022/03/30 09:51:28;;;;;;;26.85;15.60;;;;;;;24.60;31.47;99876.83;1758177;81;20876;-75
2022/03/30 09:53:55;;;;;;;21.02;14.68;;;;;;;24.80;31.00;99880.91;1758216;81;20849;-76
2022/03/30 09:56:24;;;;;;;21.15;15.85;;;;;;;24.90;30.41;99869.77;1758123;81;20884;-74
2022/03/30 09:59:00;;;;;;;22.77;15.00;;;;;;;24.96;30.13;99875.14;1758105;81;21386;-75
2022/03/30 10:01:34;;;;;;;33.50;15.58;;;;;;;25.00;29.88;99882.28;1757987;81;20912;-74
2022/03/30 10:04:04;;;;;;;24.23;16.65;;;;;;;24.99;30.00;99872.56;1757993;81;20928;-75
2022/03/30 10:06:33;;;;;;;21.20;16.80;;;;;;;25.01;29.66;99865.98;1758211;81;20924;-73
2022/03/30 10:09:03;;;;;;;24.65;15.70;;;;;;;25.09;29.14;99875.68;1741875;81;20896;-74
2022/03/30 10:11:30;;;;;;;26.60;17.05;;;;;;;25.08;29.30;99867.33;1758064;80;20884;-75
2022/03/30 10:14:00;;;;;;;24.52;17.32;;;;;;;25.02;29.21;99873.52;1758617;80;21139;-74
2022/03/30 10:16:29;;;;;;;29.07;18.20;;;;;;;24.99;29.58;99863.17;1758175;81;20963;-74
2022/03/30 10:18:56;;;;;;;29.12;20.52;;;;;;;25.18;29.79;99858.86;1757951;81;20960;-73
2022/03/30 10:21:47;;;;;;;26.25;18.02;;;;;;;25.48;28.27;99849.91;1757814;81;21339;-74
2022/03/30 10:24:55;;;;;;;24.35;16.70;;;;;;;25.49;28.17;99841.33;1757953;81;20919;-75
2022/03/30 10:27:56;;;;;;;21.42;14.63;;;;;;;25.50;28.00;99838.94;1757975;81;21115;-73
2022/03/30 10:30:30;;;;;;;20.45;14.23;;;;;;;25.55;27.16;99834.61;1757778;81;21462;-74
2022/03/30 10:33:00;;;;;;;18.55;13.98;;;;;;;25.59;27.62;99833.65;1757947;81;20975;-78
2022/03/30 10:35:50;;;;;;;21.17;13.60;;;;;;;25.76;27.74;99832.17;1757764;81;20948;-75
2022/03/30 10:38:15;;;;;;;17.82;11.70;;;;;;;25.96;26.85;99823.27;1756483;80;21295;-76
2022/03/30 10:40:43;;;;;;;27.00;11.85;;;;;;;26.13;26.72;99822.28;1757821;81;21135;-74
2022/03/30 10:43:26;;;;;;;14.75;10.63;;;;;;;26.31;26.11;99813.50;1757383;81;21010;-73
2022/03/30 10:46:02;;;;;;;17.40;10.90;;;;;;;26.55;25.32;99809.23;1756853;81;21486;-75
2022/03/30 10:48:37;;;;;;;15.78;11.03;;;;;;;26.69;24.88;99809.99;1757793;81;20893;-74
2022/03/30 10:51:17;;;;;;;24.12;16.40;;;;;;;26.74;24.76;99801.56;1757775;81;20915;-75
2022/03/30 10:53:50;;;;;;;16.30;12.30;;;;;;;26.69;23.72;99797.36;1758003;81;21117;-74
2022/03/30 10:56:24;;;;;;;16.50;10.72;;;;;;;26.55;24.12;99799.33;1757975;81;21493;-75
2022/03/30 10:58:59;;;;;;;17.42;11.18;;;;;;;26.54;23.85;99794.13;1758411;80;20919;-75
2022/03/30 11:01:38;;;;;;;16.42;10.48;;;;;;;26.51;23.88;99793.22;1758150;81;20936;-74
2022/03/30 11:04:17;;;;;;;15.80;10.18;;;;;;;26.41;24.05;99785.61;1757811;81;21014;-75
2022/03/30 11:07:02;;;;;;;16.75;9.93;;;;;;;26.30;24.59;99787.12;1757975;81;21262;-76
2022/03/30 11:09:33;;;;;;;15.25;11.05;;;;;;;26.35;24.14;99777.09;1721027;83;20856;-76
2022/03/30 11:12:12;;;;;;;15.63;10.03;;;;;;;26.22;23.57;99778.80;1703695;84;20945;-74
2022/03/30 11:14:44;;;;;;;20.40;15.40;;;;;;;26.02;23.88;99774.05;1680032;84;20913;-74
2022/03/30 11:17:15;;;;;;;19.27;10.75;;;;;;;25.85;23.98;99767.77;1680214;84;20949;-73
2022/03/30 11:20:00;;;;;;;16.10;11.08;;;;;;;25.79;23.62;99776.70;1704248;84;21231;-74
2022/03/30 11:22:30;;;;;;;16.80;11.20;;;;;;;25.69;23.71;99765.57;1703565;84;21567;-75
2022/03/30 11:25:23;;;;;;;12.47;11.00;;;;;;;25.63;24.11;99765.91;1703597;84;20940;-75
2022/03/30 11:28:08;;;;;;;20.90;10.78;;;;;;;25.57;24.22;99763.25;1703826;84;20925;-76
2022/03/30 11:30:39;;;;;;;21.95;11.03;;;;;;;25.40;23.57;99754.81;1703850;84;20933;-73
2022/03/30 11:33:22;;;;;;;18.67;10.95;;;;;;;25.17;23.95;99768.67;1703620;84;21273;-75
2022/03/30 11:35:52;;;;;;;17.42;11.80;;;;;;;24.99;24.48;99759.89;1703523;84;20949;-75
2022/03/30 11:38:26;;;;;;;18.23;12.28;;;;;;;24.91;24.98;99753.41;1721836;82;20935;-74
2022/03/30 11:41:06;;;;;;;22.00;18.77;;;;;;;24.89;24.64;99753.61;1720960;82;20911;-74